createdAt,value
2022-08-03T00:00:24.344Z,18.63
2022-08-03T00:02:51.091Z,18.70
2022-08-03T00:05:17.555Z,18.71
2022-08-03T00:07:44.042Z,18.57
2022-08-03T00:10:11.167Z,18.73
2022-08-03T00:12:37.670Z,18.54
2022-08-03T00:15:04.591Z,18.57
2022-08-03T00:17:52.756Z,18.44
2022-08-03T00:20:21.298Z,18.48
2022-08-03T00:22:47.889Z,18.57
2022-08-03T00:25:14.404Z,18.63
2022-08-03T00:27:40.881Z,18.49
2022-08-03T00:30:07.623Z,18.64
2022-08-03T00:32:34.091Z,18.33
2022-08-03T00:35:00.599Z,18.80
2022-08-03T00:37:40.830Z,18.62
2022-08-03T00:40:10.533Z,18.61
2022-08-03T00:42:46.929Z,18.42
2022-08-03T00:45:13.438Z,18.52
2022-08-03T00:47:39.897Z,18.87
2022-08-03T00:50:06.723Z,18.85
2022-08-03T00:52:34.005Z,18.79
2022-08-03T00:55:01.456Z,18.68
2022-08-03T00:57:30.450Z,18.36
2022-08-03T00:59:57.130Z,18.63
2022-08-03T01:02:23.674Z,18.52
2022-08-03T01:04:50.251Z,18.45
2022-08-03T01:07:51.113Z,18.60
2022-08-03T01:10:26.955Z,18.23
2022-08-03T01:13:59.961Z,18.51
2022-08-03T01:16:07.975Z,18.65
2022-08-03T01:18:51.051Z,18.70
2022-08-03T01:21:27.504Z,18.59
2022-08-03T01:24:44.505Z,18.55
2022-08-03T01:27:17.855Z,18.43
2022-08-03T01:29:58.546Z,18.56
2022-08-03T01:32:59.697Z,18.46
2022-08-03T01:35:27.691Z,18.43
2022-08-03T01:38:04.507Z,18.45
2022-08-03T01:40:34.577Z,18.54
2022-08-03T01:43:06.679Z,18.49
2022-08-03T01:45:34.647Z,18.50
2022-08-03T01:48:02.639Z,18.50
2022-08-03T01:50:30.863Z,18.55
2022-08-03T01:52:58.502Z,18.82
2022-08-03T01:55:28.286Z,18.60
2022-08-03T01:58:04.885Z,18.74
2022-08-03T02:00:35.437Z,18.48
2022-08-03T02:03:05.226Z,18.62
2022-08-03T02:05:32.400Z,18.52
2022-08-03T02:08:00.200Z,18.55
2022-08-03T02:10:34.777Z,18.55
2022-08-03T02:13:05.133Z,18.63
2022-08-03T02:15:34.060Z,18.55
2022-08-03T02:18:02.430Z,18.52
2022-08-03T02:20:33.168Z,18.55
2022-08-03T02:23:00.273Z,18.65
2022-08-03T02:25:28.242Z,18.59
2022-08-03T02:28:19.272Z,18.48
2022-08-03T02:30:51.740Z,18.57
2022-08-03T02:33:27.010Z,18.54
2022-08-03T02:35:55.142Z,18.56
2022-08-03T02:38:26.194Z,18.90
2022-08-03T02:40:56.299Z,18.42
2022-08-03T02:43:24.627Z,18.52
2022-08-03T02:45:53.588Z,18.68
2022-08-03T02:48:29.296Z,18.61
2022-08-03T02:51:02.311Z,18.70
2022-08-03T02:53:30.711Z,18.53
2022-08-03T02:55:59.257Z,18.69
2022-08-03T02:58:26.281Z,18.62
2022-08-03T03:01:06.569Z,18.60
2022-08-03T03:03:39.961Z,18.70
2022-08-03T03:06:13.476Z,18.40
2022-08-03T03:08:42.280Z,18.64
2022-08-03T03:11:10.300Z,18.30
2022-08-03T03:13:37.975Z,18.56
2022-08-03T03:16:08.615Z,18.30
2022-08-03T03:18:37.390Z,18.53
2022-08-03T03:21:04.936Z,18.47
2022-08-03T03:23:35.208Z,18.35
2022-08-03T03:26:02.401Z,18.25
2022-08-03T03:28:30.553Z,18.41
2022-08-03T03:30:57.162Z,18.40
2022-08-03T03:33:24.214Z,18.31
2022-08-03T03:35:51.920Z,18.28
2022-08-03T03:38:19.858Z,18.10
2022-08-03T03:40:46.491Z,18.19
2022-08-03T03:43:13.492Z,18.29
2022-08-03T03:45:43.496Z,18.25
2022-08-03T03:48:10.748Z,18.43
2022-08-03T03:50:40.822Z,18.21
2022-08-03T03:53:10.604Z,18.06
2022-08-03T03:55:59.490Z,18.34
2022-08-03T03:58:25.016Z,18.06
2022-08-03T04:00:51.717Z,17.72
2022-08-03T04:03:18.227Z,17.95
2022-08-03T04:06:03.332Z,18.05
2022-08-03T04:08:49.454Z,18.13
2022-08-03T04:11:58.565Z,18.12
2022-08-03T04:14:35.127Z,18.02
2022-08-03T04:17:03.573Z,18.12
2022-08-03T04:19:32.960Z,18.06
2022-08-03T04:22:03.732Z,18.24
2022-08-03T04:24:38.355Z,18.13
2022-08-03T04:27:08.926Z,18.29
2022-08-03T04:29:48.042Z,18.11
2022-08-03T04:32:17.184Z,18.19
2022-08-03T04:34:44.459Z,18.22
2022-08-03T04:37:35.275Z,18.41
2022-08-03T04:40:05.928Z,18.28
2022-08-03T04:42:33.882Z,18.22
2022-08-03T04:45:02.819Z,18.52
2022-08-03T04:47:32.970Z,18.40
2022-08-03T04:50:12.963Z,18.52
2022-08-03T04:52:44.029Z,18.48
2022-08-03T04:55:11.055Z,18.47
2022-08-03T04:57:41.381Z,18.62
2022-08-03T05:00:17.976Z,18.40
2022-08-03T05:02:47.291Z,18.61
2022-08-03T05:05:16.270Z,18.48
2022-08-03T05:08:05.128Z,18.43
2022-08-03T05:10:48.354Z,18.37
2022-08-03T05:13:17.181Z,18.77
2022-08-03T05:15:47.806Z,18.58
2022-08-03T05:18:22.002Z,18.81
2022-08-03T05:44:44.322Z,19.52
2022-08-03T05:47:21.262Z,19.56
2022-08-03T05:50:00.864Z,19.92
2022-08-03T06:15:51.131Z,21.21
2022-08-03T06:18:18.014Z,21.21
2022-08-03T07:17:00.310Z,24.82
2022-08-03T07:19:26.768Z,25.12
2022-08-03T07:21:53.651Z,25.01
2022-08-03T07:24:20.259Z,25.28
2022-08-03T07:26:46.609Z,25.63
2022-08-03T07:29:15.509Z,25.92
2022-08-03T07:31:42.511Z,26.61
2022-08-03T07:34:09.134Z,26.74
2022-08-03T07:36:35.583Z,26.59
2022-08-03T07:39:17.692Z,26.43
2022-08-03T07:41:51.949Z,26.99
2022-08-03T07:48:12.394Z,26.99
2022-08-03T07:51:07.295Z,27.21
2022-08-03T07:56:47.696Z,30.84
2022-08-03T08:00:24.635Z,32.72
2022-08-03T08:07:18.344Z,31.92
2022-08-03T08:10:33.103Z,30.87
2022-08-03T08:16:20.892Z,28.89
2022-08-03T08:18:47.763Z,29.09
2022-08-03T08:22:14.388Z,28.37
2022-08-03T08:25:21.541Z,28.38
2022-08-03T08:28:29.831Z,27.92
2022-08-03T08:30:59.278Z,28.39
2022-08-03T08:33:25.923Z,28.38
2022-08-03T08:35:54.250Z,28.41
2022-08-03T08:38:21.989Z,28.20
2022-08-03T08:40:50.155Z,28.23
2022-08-03T08:43:16.699Z,28.33
2022-08-03T08:45:44.962Z,28.51
2022-08-03T08:48:14.233Z,28.61
2022-08-03T08:50:41.124Z,28.68
2022-08-03T08:53:17.392Z,29.09
2022-08-03T08:55:58.715Z,28.98
2022-08-03T08:58:30.026Z,28.70
2022-08-03T09:01:00.026Z,28.58
2022-08-03T09:03:32.726Z,28.20
2022-08-03T09:06:01.038Z,28.16
2022-08-03T09:08:37.038Z,28.36
2022-08-03T09:11:03.672Z,28.74
2022-08-03T09:25:23.456Z,28.81
2022-08-03T09:27:53.537Z,28.61
2022-08-03T09:30:34.573Z,28.82
2022-08-03T09:33:17.338Z,28.53
2022-08-03T09:36:18.954Z,28.61
2022-08-03T09:39:02.043Z,28.83
2022-08-03T09:41:28.760Z,28.99
2022-08-03T09:43:57.212Z,29.12
2022-08-03T09:46:24.027Z,29.02
2022-08-03T09:48:50.579Z,29.13
2022-08-03T09:51:33.059Z,29.30
2022-08-03T09:54:15.088Z,29.23
2022-08-03T09:56:46.893Z,29.14
2022-08-03T09:59:33.484Z,29.37
2022-08-03T10:02:00.909Z,29.69
2022-08-03T10:04:30.511Z,29.36
2022-08-03T10:07:07.520Z,29.46
2022-08-03T10:09:34.043Z,29.52
2022-08-03T10:12:12.596Z,29.36
2022-08-03T10:14:41.998Z,29.55
2022-08-03T10:17:09.621Z,29.42
2022-08-03T10:31:57.697Z,29.36
2022-08-03T10:35:20.245Z,29.82
2022-08-03T10:42:27.718Z,29.43
2022-08-03T11:25:54.679Z,29.91
2022-08-03T11:28:28.796Z,30.13
2022-08-03T11:30:55.382Z,30.39
2022-08-03T11:33:32.117Z,30.89
2022-08-03T11:36:03.220Z,30.72
2022-08-03T11:38:29.874Z,30.12
2022-08-03T11:40:56.391Z,30.83
2022-08-03T11:43:42.923Z,31.10
2022-08-03T12:01:42.644Z,30.77
2022-08-03T12:05:09.390Z,30.82
2022-08-03T12:14:50.624Z,30.83
2022-08-03T12:17:46.117Z,31.39
2022-08-03T12:20:34.783Z,31.48
2022-08-03T12:31:03.517Z,31.02
2022-08-03T12:48:31.775Z,31.52
2022-08-03T12:51:39.641Z,31.65
2022-08-03T12:54:06.427Z,31.62
2022-08-03T12:56:33.620Z,31.67
2022-08-03T12:59:00.491Z,31.68
2022-08-03T13:01:28.979Z,31.57
2022-08-03T13:04:00.310Z,31.77
2022-08-03T13:06:30.866Z,32.04
2022-08-03T13:09:17.374Z,32.09
2022-08-03T13:11:57.449Z,31.86
2022-08-03T13:14:29.057Z,31.93
2022-08-03T13:16:55.825Z,31.85
2022-08-03T13:19:24.523Z,31.86
2022-08-03T13:22:01.385Z,32.15
2022-08-03T13:24:31.909Z,32.09
2022-08-03T13:26:59.520Z,32.28
2022-08-03T13:29:26.028Z,32.50
2022-08-03T13:31:52.666Z,32.39
2022-08-03T13:34:23.065Z,32.47
2022-08-03T13:37:08.417Z,32.55
2022-08-03T13:39:58.300Z,32.44
2022-08-03T13:42:22.202Z,32.58
2022-08-03T13:44:48.713Z,32.58
2022-08-03T13:47:15.204Z,32.26
2022-08-03T13:49:42.261Z,32.74
2022-08-03T13:52:26.065Z,32.70
2022-08-03T13:54:52.535Z,32.66
2022-08-03T13:58:04.847Z,32.35
2022-08-03T14:00:06.847Z,32.55
2022-08-03T14:02:33.348Z,32.62
2022-08-03T14:04:59.816Z,32.41
2022-08-03T14:07:26.295Z,32.53
2022-08-03T14:09:55.222Z,32.74
2022-08-03T14:12:21.682Z,32.73
2022-08-03T14:14:48.158Z,32.40
2022-08-03T14:17:16.332Z,32.49
2022-08-03T14:19:53.015Z,32.71
2022-08-03T14:22:21.157Z,32.94
2022-08-03T14:24:49.248Z,33.02
2022-08-03T14:27:16.590Z,32.52
2022-08-03T14:29:44.594Z,32.88
2022-08-03T14:32:13.434Z,32.64
2022-08-03T14:34:40.956Z,32.44
2022-08-03T14:37:08.129Z,32.85
2022-08-03T14:42:21.639Z,33.07
2022-08-03T14:44:48.126Z,32.98
2022-08-03T14:47:14.817Z,33.09
2022-08-03T14:50:34.780Z,33.01
2022-08-03T14:52:28.798Z,33.33
2022-08-03T14:54:55.406Z,33.14
2022-08-03T14:57:22.154Z,33.09
2022-08-03T14:59:56.063Z,33.13
2022-08-03T15:02:24.813Z,33.21
2022-08-03T15:04:52.304Z,33.00
2022-08-03T15:07:20.480Z,32.99
2022-08-03T15:09:47.243Z,33.26
2022-08-03T15:12:13.701Z,33.73
2022-08-03T15:14:40.386Z,33.75
2022-08-03T15:17:07.552Z,33.87
2022-08-03T15:20:00.343Z,33.87
2022-08-03T15:22:25.373Z,33.11
2022-08-03T15:26:04.032Z,33.23
2022-08-03T15:28:03.578Z,33.35
2022-08-03T15:30:33.859Z,33.55
2022-08-03T15:33:00.346Z,33.58
2022-08-03T15:35:28.890Z,33.66
2022-08-03T15:37:55.561Z,33.66
2022-08-03T15:40:22.413Z,33.12
2022-08-03T15:42:49.038Z,32.67
2022-08-03T15:45:17.836Z,32.84
2022-08-03T15:47:47.251Z,32.79
2022-08-03T15:50:13.770Z,33.01
2022-08-03T15:52:40.262Z,33.10
2022-08-03T15:55:07.343Z,32.97
2022-08-03T15:57:33.981Z,33.12
2022-08-03T16:00:20.589Z,33.28
2022-08-03T16:03:00.128Z,33.47
2022-08-03T16:05:26.628Z,33.07
2022-08-03T16:08:02.944Z,33.49
2022-08-03T16:10:30.754Z,33.69
2022-08-03T16:12:58.851Z,33.53
2022-08-03T16:15:25.374Z,33.57
2022-08-03T16:17:51.900Z,33.64
2022-08-03T16:20:31.450Z,33.61
2022-08-03T16:23:06.978Z,33.57
2022-08-03T16:25:41.693Z,33.60
2022-08-03T16:28:13.824Z,33.19
2022-08-03T16:30:42.641Z,33.04
2022-08-03T16:33:10.555Z,33.00
2022-08-03T16:35:37.105Z,33.12
2022-08-03T16:38:09.622Z,32.99
2022-08-03T16:40:40.025Z,32.75
2022-08-03T16:43:17.913Z,33.01
2022-08-03T16:45:48.773Z,32.94
2022-08-03T16:48:16.182Z,32.32
2022-08-03T16:50:43.046Z,32.37
2022-08-03T16:53:15.711Z,32.38
2022-08-03T16:55:51.802Z,31.90
2022-08-03T16:58:34.522Z,31.57
2022-08-03T17:01:22.413Z,31.49
2022-08-03T17:04:01.343Z,31.52
2022-08-03T17:06:35.294Z,31.62
2022-08-03T17:09:08.939Z,30.99
2022-08-03T17:11:47.512Z,31.35
2022-08-03T17:14:21.632Z,31.24
2022-08-03T17:16:54.153Z,31.15
2022-08-03T17:19:25.565Z,31.20
2022-08-03T17:22:01.576Z,30.93
2022-08-03T17:24:40.925Z,30.45
2022-08-03T17:27:23.179Z,30.41
2022-08-03T17:30:12.009Z,30.20
2022-08-03T17:32:56.562Z,30.10
2022-08-03T17:35:35.562Z,29.70
2022-08-03T17:38:06.618Z,29.95
2022-08-03T17:40:37.975Z,29.79
2022-08-03T17:44:13.847Z,29.69
2022-08-03T17:45:59.149Z,29.45
2022-08-03T17:48:27.530Z,29.51
2022-08-03T17:51:03.400Z,29.28
2022-08-03T17:53:37.580Z,29.34
2022-08-03T17:56:46.022Z,29.36
2022-08-03T17:59:51.725Z,29.18
2022-08-03T18:03:10.119Z,29.08
2022-08-03T18:06:11.276Z,28.58
2022-08-03T18:08:38.851Z,28.90
2022-08-03T18:11:14.476Z,28.58
2022-08-03T18:14:03.065Z,28.56
2022-08-03T18:16:44.998Z,28.02
2022-08-03T18:19:14.443Z,27.63
2022-08-03T18:22:03.211Z,27.63
2022-08-03T18:24:32.456Z,27.66
2022-08-03T18:27:02.278Z,27.46
2022-08-03T18:29:30.947Z,27.46
2022-08-03T18:32:03.844Z,27.37
2022-08-03T18:34:34.714Z,27.27
2022-08-03T18:37:10.749Z,27.14
2022-08-03T18:39:50.337Z,26.91
2022-08-03T18:42:25.873Z,26.80
2022-08-03T18:45:00.303Z,27.04
2022-08-03T18:48:00.607Z,26.74
2022-08-03T18:51:03.965Z,26.27
2022-08-03T18:54:44.617Z,26.30
2022-08-03T18:57:30.220Z,26.24
2022-08-03T19:00:54.329Z,26.22
2022-08-03T19:03:42.951Z,26.07
2022-08-03T19:06:24.399Z,26.08
2022-08-03T19:09:28.786Z,25.97
2022-08-03T19:15:16.615Z,25.62
2022-08-03T19:17:52.872Z,25.88
2022-08-03T19:20:38.824Z,25.66
2022-08-03T19:23:11.835Z,25.70
2022-08-03T19:25:41.461Z,25.42
2022-08-03T19:28:12.105Z,25.51
2022-08-03T19:30:40.475Z,25.13
2022-08-03T19:33:12.766Z,24.81
2022-08-03T19:35:54.784Z,25.10
2022-08-03T19:38:28.428Z,25.07
2022-08-03T19:41:03.239Z,24.65
2022-08-03T19:44:20.070Z,24.64
2022-08-03T19:46:53.656Z,24.71
2022-08-03T19:50:04.607Z,24.35
2022-08-03T19:52:24.584Z,24.36
2022-08-03T19:55:05.902Z,24.39
2022-08-03T19:57:34.126Z,24.53
2022-08-03T20:00:05.397Z,24.39
2022-08-03T20:02:37.997Z,24.26
2022-08-03T20:05:15.860Z,24.63
2022-08-03T20:07:48.273Z,24.25
2022-08-03T20:10:19.417Z,24.57
2022-08-03T20:12:48.572Z,24.18
2022-08-03T20:15:22.499Z,24.32
2022-08-03T20:17:58.680Z,23.98
2022-08-03T20:20:39.032Z,24.23
2022-08-03T20:23:13.844Z,23.97
2022-08-03T20:25:48.945Z,23.77
2022-08-03T20:28:52.963Z,24.29
2022-08-03T20:31:25.176Z,23.62
2022-08-03T20:34:00.519Z,23.69
2022-08-03T20:36:27.319Z,23.96
2022-08-03T20:38:57.645Z,23.67
2022-08-03T20:41:24.748Z,23.75
2022-08-03T20:43:51.207Z,23.75
2022-08-03T20:46:30.833Z,23.63
2022-08-03T20:49:04.297Z,23.74
2022-08-03T20:51:50.068Z,23.45
2022-08-03T20:54:23.115Z,23.84
2022-08-03T20:57:04.314Z,23.57
2022-08-03T20:59:55.677Z,23.33
2022-08-03T21:02:29.865Z,22.76
2022-08-03T21:05:08.461Z,23.15
2022-08-03T21:08:05.111Z,23.24
2022-08-03T21:10:38.024Z,23.38
2022-08-03T21:13:08.789Z,25.77
2022-08-03T21:13:18.171Z,23.03
2022-08-03T21:16:03.304Z,22.77
2022-08-03T21:18:50.050Z,22.89
2022-08-03T21:21:23.818Z,22.84
2022-08-03T21:23:53.083Z,23.11
2022-08-03T21:26:24.894Z,23.00
2022-08-03T21:28:53.835Z,22.91
2022-08-03T21:31:25.390Z,23.13
2022-08-03T21:33:57.689Z,22.85
2022-08-03T21:36:27.337Z,22.91
2022-08-03T21:38:56.461Z,22.80
2022-08-03T21:41:25.135Z,22.91
2022-08-03T21:43:51.636Z,22.68
2022-08-03T21:46:20.020Z,22.60
2022-08-03T21:48:50.609Z,22.75
2022-08-03T21:51:19.275Z,22.89
2022-08-03T21:54:00.351Z,22.77
2022-08-03T21:56:37.119Z,22.43
2022-08-03T21:59:07.031Z,22.73
2022-08-03T22:01:35.877Z,22.80
2022-08-03T22:04:09.386Z,22.85
2022-08-03T22:06:51.178Z,22.81
2022-08-03T22:09:19.150Z,22.56
2022-08-03T22:11:47.982Z,22.65
2022-08-03T22:14:14.469Z,22.35
2022-08-03T22:16:41.312Z,22.24
2022-08-03T22:19:08.357Z,22.32
2022-08-03T22:21:36.687Z,22.59
2022-08-03T22:24:05.475Z,22.48
2022-08-03T22:26:35.365Z,22.32
2022-08-03T22:29:07.247Z,22.32
2022-08-03T22:31:57.362Z,22.32
2022-08-03T22:34:26.481Z,22.33
2022-08-03T22:36:55.703Z,21.95
2022-08-03T22:39:28.888Z,21.98
2022-08-03T22:41:58.856Z,22.08
2022-08-03T22:44:26.871Z,22.11
2022-08-03T22:46:53.671Z,22.41
2022-08-03T22:49:20.758Z,22.28
2022-08-03T22:51:47.551Z,22.02
2022-08-03T22:54:14.793Z,22.06
2022-08-03T22:56:41.563Z,22.07
2022-08-03T22:59:40.783Z,22.44
2022-08-03T23:02:00.403Z,22.16
2022-08-03T23:04:29.727Z,22.05
2022-08-03T23:07:01.898Z,22.05
2022-08-03T23:09:30.313Z,21.90
2022-08-03T23:11:58.760Z,21.86
2022-08-03T23:14:29.234Z,21.63
2022-08-03T23:16:56.780Z,21.80
2022-08-03T23:19:34.240Z,21.88
2022-08-03T23:22:06.967Z,21.66
2022-08-03T23:24:53.827Z,21.46
2022-08-03T23:27:21.122Z,21.73
2022-08-03T23:29:50.496Z,21.51
2022-08-03T23:32:20.635Z,21.81
2022-08-03T23:35:07.179Z,21.90
2022-08-03T23:38:04.571Z,21.61
2022-08-03T23:40:28.891Z,21.75
2022-08-03T23:42:57.112Z,21.91
2022-08-03T23:45:26.053Z,21.96
2022-08-03T23:47:52.511Z,21.61
2022-08-03T23:50:19.160Z,21.81
2022-08-03T23:52:52.834Z,21.84
2022-08-03T23:55:40.058Z,21.59
2022-08-03T23:58:18.667Z,21.99
